Time;durP1;ratioP1;P1;durP2;ratioP2;P2;SDS_P1;SDS_P2;PMS_P1;PMS_P2;Temp;Humidity;BMP_temperature;BMP_pressure;BME280_temperature;BME280_humidity;BME280_pressure;Samples;Min_cycle;Max_cycle;Signal;HPM_P1;HPM_P2
2022/05/29 00:00:17;;;;;;;8.80;3.90;;;10.60;99.90;;;;;;5056232;28;20470;-83
2022/05/29 00:02:43;;;;;;;10.00;4.05;;;10.70;99.90;;;;;;5055772;28;20406;-85
2022/05/29 00:05:11;;;;;;;10.90;3.85;;;10.70;99.90;;;;;;5056398;28;20470;-83
2022/05/29 00:07:38;;;;;;;12.93;3.75;;;10.70;99.90;;;;;;5055889;28;20452;-83
2022/05/29 00:10:07;;;;;;;7.72;3.42;;;10.70;99.90;;;;;;5037354;28;20742;-84
2022/05/29 00:12:33;;;;;;;9.63;3.13;;;10.70;99.90;;;;;;5052808;28;20953;-84
2022/05/29 00:14:58;;;;;;;5.30;2.97;;;10.70;99.90;;;;;;5053283;28;20463;-83
2022/05/29 00:17:25;;;;;;;8.05;3.03;;;10.60;99.90;;;;;;5053656;28;20768;-82
2022/05/29 00:19:50;;;;;;;10.57;3.20;;;10.50;99.90;;;;;;5035356;28;20912;-82
2022/05/29 00:22:19;;;;;;;8.63;3.10;;;10.60;99.90;;;;;;5052827;28;20407;-82
2022/05/29 00:24:46;;;;;;;8.07;3.00;;;10.60;99.90;;;;;;5053378;28;20383;-83
2022/05/29 00:27:16;;;;;;;10.65;3.42;;;10.60;99.90;;;;;;5052575;28;20838;-85
2022/05/29 00:29:43;;;;;;;9.32;3.10;;;10.60;99.90;;;;;;5052696;28;20482;-83
2022/05/29 00:32:09;;;;;;;6.63;3.00;;;10.50;99.90;;;;;;5052904;28;20379;-82
2022/05/29 00:34:34;;;;;;;14.43;3.50;;;10.50;99.90;;;;;;5035807;28;20372;-83
2022/05/29 00:37:02;;;;;;;8.90;3.33;;;10.50;99.90;;;;;;5052680;28;20388;-82
2022/05/29 00:39:29;;;;;;;5.18;3.03;;;10.60;99.90;;;;;;5034675;28;20825;-85
2022/05/29 00:41:55;;;;;;;7.38;3.15;;;10.70;99.90;;;;;;5033660;28;20840;-82
2022/05/29 00:44:29;;;;;;;7.75;3.00;;;10.60;99.90;;;;;;5052634;28;20379;-86
2022/05/29 00:47:01;;;;;;;10.85;3.40;;;10.50;99.90;;;;;;5033883;28;20447;-84
2022/05/29 00:49:31;;;;;;;8.35;3.00;;;10.50;99.90;;;;;;5051607;28;20387;-83
2022/05/29 00:52:16;;;;;;;9.77;2.97;;;10.50;99.90;;;;;;5051929;28;20376;-82
2022/05/29 00:54:53;;;;;;;7.15;3.10;;;10.50;99.90;;;;;;5034470;28;20450;-85
2022/05/29 00:57:25;;;;;;;10.18;3.40;;;10.60;99.90;;;;;;5051856;28;20483;-84
2022/05/29 00:59:52;;;;;;;9.37;3.40;;;10.50;99.90;;;;;;5035073;28;20392;-83
2022/05/29 01:02:17;;;;;;;10.47;3.57;;;10.50;99.90;;;;;;5053751;28;20396;-83
2022/05/29 01:04:43;;;;;;;7.30;2.87;;;10.50;99.90;;;;;;5056838;28;20387;-86
2022/05/29 01:07:11;;;;;;;11.80;3.67;;;10.50;99.90;;;;;;5038335;28;20388;-83
2022/05/29 01:09:39;;;;;;;6.95;3.15;;;10.50;99.90;;;;;;5035464;28;20380;-84
2022/05/29 01:12:38;;;;;;;10.65;3.47;;;10.40;99.90;;;;;;5035418;28;20372;-86
2022/05/29 01:15:14;;;;;;;6.55;3.20;;;10.50;99.90;;;;;;5052549;28;20410;-85
2022/05/29 01:17:52;;;;;;;11.15;3.35;;;10.50;99.90;;;;;;5035373;28;20383;-89
2022/05/29 01:20:34;;;;;;;9.38;3.63;;;10.50;99.90;;;;;;5034639;28;20383;-86
2022/05/29 01:23:28;;;;;;;8.32;3.20;;;10.50;99.90;;;;;;5033477;28;20890;-84
2022/05/29 01:26:22;;;;;;;7.93;3.05;;;10.50;99.90;;;;;;5032769;28;20445;-83
2022/05/29 01:29:01;;;;;;;9.90;3.10;;;10.40;99.90;;;;;;5032077;28;20536;-85
2022/05/29 01:31:45;;;;;;;8.00;2.97;;;10.50;99.90;;;;;;5053032;28;20390;-84
2022/05/29 01:34:53;;;;;;;10.33;3.30;;;10.50;99.90;;;;;;5054260;28;20500;-85
2022/05/29 01:37:32;;;;;;;9.35;3.42;;;10.40;99.90;;;;;;5055244;28;20388;-84
2022/05/29 01:40:14;;;;;;;8.25;3.55;;;10.40;99.90;;;;;;5035218;28;20384;-85
2022/05/29 01:42:55;;;;;;;10.52;3.40;;;10.40;99.90;;;;;;5037393;28;20419;-83
2022/05/29 01:45:54;;;;;;;10.02;3.33;;;10.40;99.90;;;;;;5053316;28;20384;-86
2022/05/29 01:48:36;;;;;;;8.25;3.25;;;10.40;99.90;;;;;;5035669;28;20462;-84
2022/05/29 01:51:12;;;;;;;12.68;3.53;;;10.40;99.90;;;;;;5053682;28;20380;-85
2022/05/29 01:53:42;;;;;;;11.23;3.33;;;10.40;99.90;;;;;;5054598;28;20885;-84
2022/05/29 01:56:19;;;;;;;8.68;3.42;;;10.40;99.90;;;;;;5036219;28;20388;-85
2022/05/29 01:58:51;;;;;;;10.27;3.30;;;10.40;99.90;;;;;;5036191;28;20407;-86
2022/05/29 02:01:19;;;;;;;11.63;3.35;;;10.40;99.90;;;;;;5034977;28;20903;-84
2022/05/29 02:03:50;;;;;;;7.45;2.95;;;10.40;99.90;;;;;;5053004;28;20375;-87
2022/05/29 02:09:26;;;;;;;11.65;3.17;;;10.30;99.90;;;;;;5053485;28;20395;-82
2022/05/29 02:11:58;;;;;;;7.93;3.10;;;10.30;99.90;;;;;;5054589;28;20478;-88
2022/05/29 02:14:29;;;;;;;8.43;3.20;;;10.40;99.90;;;;;;5036201;28;20444;-86
2022/05/29 02:17:02;;;;;;;9.10;3.67;;;10.40;99.90;;;;;;5036697;28;20886;-86
2022/05/29 02:19:39;;;;;;;9.53;3.50;;;10.30;99.90;;;;;;5053803;28;20380;-84
2022/05/29 02:22:27;;;;;;;9.83;3.43;;;10.30;99.90;;;;;;5035347;28;20501;-87
2022/05/29 02:25:01;;;;;;;8.93;2.90;;;10.40;99.90;;;;;;5054954;28;20447;-85
2022/05/29 02:27:51;;;;;;;8.32;3.45;;;10.20;99.90;;;;;;5036422;28;20384;-85
2022/05/29 02:30:18;;;;;;;7.15;3.50;;;10.20;99.90;;;;;;5035500;28;20734;-84
2022/05/29 02:33:07;;;;;;;7.18;3.17;;;10.20;99.90;;;;;;5035598;28;20383;-83
2022/05/29 02:35:56;;;;;;;6.75;3.08;;;10.20;99.90;;;;;;5054995;28;20862;-83
2022/05/29 02:38:48;;;;;;;10.68;4.03;;;10.10;99.90;;;;;;5036717;28;20474;-85
2022/05/29 02:41:19;;;;;;;10.80;3.65;;;10.10;99.90;;;;;;5054748;28;20423;-85
2022/05/29 02:43:51;;;;;;;9.75;3.63;;;10.00;99.90;;;;;;5036045;28;20400;-83
2022/05/29 02:46:25;;;;;;;8.13;3.17;;;10.00;99.90;;;;;;5053236;28;20388;-83
2022/05/29 02:49:04;;;;;;;8.35;3.65;;;10.00;99.90;;;;;;5052868;28;20438;-87
2022/05/29 02:51:40;;;;;;;7.95;3.47;;;10.00;99.90;;;;;;5034914;28;20394;-86
2022/05/29 02:54:10;;;;;;;7.65;3.70;;;10.00;99.90;;;;;;5034778;28;20441;-86
2022/05/29 02:56:35;;;;;;;9.30;3.53;;;10.00;99.90;;;;;;5054251;28;20442;-86
2022/05/29 02:59:01;;;;;;;13.50;4.05;;;10.10;99.90;;;;;;5036078;28;20379;-84
2022/05/29 03:01:39;;;;;;;8.20;3.33;;;10.00;99.90;;;;;;5033627;28;20404;-85
2022/05/29 03:04:22;;;;;;;10.13;3.42;;;10.10;99.90;;;;;;5053150;28;20380;-83
2022/05/29 03:07:20;;;;;;;9.02;3.67;;;10.10;99.90;;;;;;5034734;28;20383;-85
2022/05/29 03:09:48;;;;;;;10.02;3.78;;;10.20;99.90;;;;;;5018255;28;20376;-84
2022/05/29 03:12:26;;;;;;;7.80;3.20;;;10.10;99.90;;;;;;5033239;28;20390;-83
2022/05/29 03:15:06;;;;;;;8.77;3.83;;;10.10;99.90;;;;;;5052459;28;20392;-83
2022/05/29 03:17:42;;;;;;;6.43;3.28;;;10.10;99.90;;;;;;5033690;28;20383;-84
2022/05/29 03:20:29;;;;;;;8.40;3.40;;;10.10;99.90;;;;;;5033920;28;20384;-84
2022/05/29 03:23:21;;;;;;;8.27;3.58;;;10.10;99.90;;;;;;5051711;28;20478;-84
2022/05/29 03:25:55;;;;;;;7.25;3.40;;;10.10;99.90;;;;;;5029371;28;20379;-83
2022/05/29 03:28:32;;;;;;;7.50;3.60;;;10.20;99.90;;;;;;5033753;28;20386;-84
2022/05/29 03:30:59;;;;;;;9.15;3.67;;;10.20;99.90;;;;;;5050383;28;20404;-84
2022/05/29 03:33:26;;;;;;;7.78;3.58;;;10.10;99.90;;;;;;5051352;28;20394;-83
2022/05/29 03:35:52;;;;;;;8.60;4.13;;;10.30;99.90;;;;;;5051029;28;20384;-83
2022/05/29 03:38:18;;;;;;;9.13;3.88;;;10.30;99.90;;;;;;5033384;28;20384;-84
2022/05/29 03:40:43;;;;;;;9.20;3.78;;;10.30;99.90;;;;;;5050582;28;20797;-83
2022/05/29 03:43:09;;;;;;;9.57;3.80;;;10.30;99.90;;;;;;5050573;28;20794;-84
2022/05/29 03:45:35;;;;;;;8.13;3.72;;;10.40;99.90;;;;;;5033970;28;20379;-84
2022/05/29 03:48:02;;;;;;;8.68;3.70;;;10.50;99.90;;;;;;5034567;28;20418;-84
2022/05/29 03:50:28;;;;;;;7.70;3.33;;;10.50;99.90;;;;;;5033609;28;20439;-84
2022/05/29 03:52:54;;;;;;;10.55;3.90;;;10.50;99.90;;;;;;5050539;28;20415;-83
2022/05/29 03:55:21;;;;;;;7.75;3.60;;;10.50;99.90;;;;;;5050904;28;20408;-83
2022/05/29 03:57:48;;;;;;;8.60;3.50;;;10.50;99.90;;;;;;5033420;28;20422;-84
2022/05/29 04:00:15;;;;;;;8.27;3.70;;;10.50;99.90;;;;;;5050986;28;20422;-84
2022/05/29 04:02:41;;;;;;;8.55;3.88;;;10.60;99.90;;;;;;5050797;28;20399;-84
2022/05/29 04:05:09;;;;;;;8.50;3.65;;;10.60;99.90;;;;;;5050456;28;20374;-84
2022/05/29 04:13:03;;;;;;;12.02;4.05;;;10.80;99.90;;;;;;5051034;28;20880;-83
2022/05/29 04:15:28;;;;;;;8.68;3.70;;;10.80;99.90;;;;;;5032370;28;20395;-84
2022/05/29 04:17:54;;;;;;;7.77;3.40;;;10.90;99.90;;;;;;5050490;28;20822;-83
2022/05/29 04:20:19;;;;;;;10.07;4.10;;;11.10;99.90;;;;;;5035125;28;20384;-83
2022/05/29 04:22:45;;;;;;;8.10;3.60;;;11.20;99.90;;;;;;5050893;28;20435;-83
2022/05/29 04:25:11;;;;;;;7.53;3.47;;;11.30;99.90;;;;;;5050906;28;20411;-84
2022/05/29 04:27:37;;;;;;;7.07;3.30;;;11.30;99.90;;;;;;5033875;28;20380;-84
2022/05/29 04:30:03;;;;;;;11.02;4.35;;;11.40;99.90;;;;;;5032757;28;20376;-82
2022/05/29 04:35:13;;;;;;;9.60;3.83;;;11.50;99.90;;;;;;5052006;28;20403;-84
2022/05/29 04:37:38;;;;;;;7.05;3.70;;;11.50;99.90;;;;;;5033201;28;20380;-83
2022/05/29 04:40:05;;;;;;;7.00;3.57;;;11.60;99.90;;;;;;5051586;28;20491;-83
2022/05/29 04:42:31;;;;;;;8.77;3.50;;;11.70;99.90;;;;;;5033040;28;20415;-82
2022/05/29 04:44:56;;;;;;;7.25;4.00;;;11.80;99.90;;;;;;5033244;28;20387;-85
2022/05/29 04:47:22;;;;;;;7.32;3.83;;;11.80;99.90;;;;;;5051823;28;20793;-83
2022/05/29 04:49:47;;;;;;;14.27;4.00;;;11.80;99.90;;;;;;5033901;28;20464;-85
2022/05/29 04:52:13;;;;;;;7.28;3.38;;;11.90;99.90;;;;;;5050845;28;20407;-84
2022/05/29 04:54:40;;;;;;;8.88;3.72;;;11.90;99.90;;;;;;5034059;28;20952;-85
2022/05/29 04:57:07;;;;;;;11.75;4.22;;;11.90;99.90;;;;;;5034292;28;20399;-83
2022/05/29 04:59:33;;;;;;;7.30;3.28;;;12.00;99.90;;;;;;5033446;28;20387;-83
2022/05/29 05:02:00;;;;;;;9.50;3.95;;;12.00;99.90;;;;;;5031531;28;20415;-84
2022/05/29 05:04:26;;;;;;;8.95;3.70;;;12.00;99.90;;;;;;5034032;28;20379;-84
2022/05/29 05:06:59;;;;;;;9.50;3.85;;;12.10;99.90;;;;;;5057149;28;20388;-87
2022/05/29 05:09:26;;;;;;;9.73;3.72;;;12.00;99.90;;;;;;5056255;28;20429;-84
2022/05/29 05:11:55;;;;;;;11.23;3.55;;;12.10;99.90;;;;;;5038188;28;20388;-84
2022/05/29 05:14:23;;;;;;;10.43;3.67;;;12.10;99.90;;;;;;5021492;28;20391;-85
2022/05/29 05:16:49;;;;;;;8.40;3.83;;;12.10;99.90;;;;;;5036468;28;20395;-84
2022/05/29 05:19:15;;;;;;;6.90;3.47;;;12.00;99.90;;;;;;5036922;28;20395;-85
2022/05/29 05:21:42;;;;;;;9.25;3.80;;;12.20;99.90;;;;;;5056208;28;20400;-83
2022/05/29 05:24:08;;;;;;;9.38;4.20;;;12.30;99.90;;;;;;5056291;28;20372;-83
2022/05/29 05:26:34;;;;;;;9.90;4.20;;;12.50;99.90;;;;;;5037519;28;20380;-85
2022/05/29 05:28:59;;;;;;;8.52;3.53;;;12.60;99.90;;;;;;5036101;28;20951;-83
2022/05/29 05:31:25;;;;;;;10.93;4.20;;;12.70;99.90;;;;;;5053071;28;20899;-85
2022/05/29 05:33:51;;;;;;;7.07;3.50;;;13.00;99.90;;;;;;5053890;28;20391;-84
2022/05/29 05:36:17;;;;;;;10.43;3.95;;;13.20;99.90;;;;;;5039804;28;20461;-85
2022/05/29 05:38:44;;;;;;;9.35;4.18;;;13.20;99.90;;;;;;5059847;28;20532;-84
2022/05/29 05:41:11;;;;;;;9.15;4.35;;;13.10;99.90;;;;;;5056564;28;20391;-85
2022/05/29 05:43:37;;;;;;;11.10;3.85;;;13.10;99.90;;;;;;5039789;28;20392;-83
2022/05/29 05:46:10;;;;;;;10.55;4.05;;;13.10;99.90;;;;;;5040092;28;20413;-84
2022/05/29 05:48:38;;;;;;;9.48;4.45;;;13.00;99.90;;;;;;5056577;28;20876;-85
2022/05/29 05:51:03;;;;;;;9.63;4.15;;;12.90;99.90;;;;;;5055992;28;20765;-86
2022/05/29 05:53:29;;;;;;;10.85;4.50;;;12.90;99.90;;;;;;5039542;28;20379;-84
2022/05/29 05:55:55;;;;;;;10.67;3.87;;;12.90;99.90;;;;;;5056234;28;20802;-85
2022/05/29 05:58:20;;;;;;;9.32;3.92;;;13.00;99.90;;;;;;5039206;28;20798;-83
2022/05/29 06:00:47;;;;;;;10.48;4.13;;;12.90;99.90;;;;;;5055947;28;20380;-83
2022/05/29 06:03:14;;;;;;;6.67;3.53;;;13.00;99.90;;;;;;5039720;28;20372;-84
2022/05/29 06:05:39;;;;;;;8.52;3.75;;;12.90;99.90;;;;;;5038392;28;20391;-83
2022/05/29 06:08:06;;;;;;;11.00;4.20;;;12.90;99.90;;;;;;5038128;28;20443;-85
2022/05/29 06:10:31;;;;;;;12.90;4.70;;;12.90;99.90;;;;;;5057842;28;20781;-85
2022/05/29 06:13:06;;;;;;;10.73;4.37;;;13.10;99.90;;;;;;5055810;28;20384;-82
2022/05/29 06:15:32;;;;;;;8.30;3.77;;;13.20;99.90;;;;;;5022005;28;20889;-85
2022/05/29 06:17:58;;;;;;;8.20;3.50;;;13.50;99.90;;;;;;5036737;28;20392;-85
2022/05/29 06:20:24;;;;;;;9.00;3.37;;;14.00;99.90;;;;;;5055906;28;20382;-82
2022/05/29 06:22:50;;;;;;;7.50;3.17;;;14.20;99.90;;;;;;5054707;28;20435;-83
2022/05/29 06:25:16;;;;;;;10.82;3.30;;;14.40;99.90;;;;;;5055927;28;20403;-85
2022/05/29 06:27:43;;;;;;;8.40;3.20;;;14.60;99.90;;;;;;5055550;28;20379;-82
2022/05/29 06:30:12;;;;;;;7.60;3.00;;;14.70;99.90;;;;;;5054918;28;20391;-84
2022/05/29 06:32:37;;;;;;;8.35;3.15;;;14.90;99.90;;;;;;5038211;28;20387;-83
2022/05/29 06:35:05;;;;;;;7.57;2.97;;;14.90;99.90;;;;;;5037427;28;20376;-84
2022/05/29 06:37:31;;;;;;;6.43;2.90;;;15.10;99.90;;;;;;5039240;28;20406;-82
2022/05/29 06:39:57;;;;;;;7.67;2.87;;;15.30;99.90;;;;;;5039636;28;20466;-83
2022/05/29 06:42:23;;;;;;;7.97;3.25;;;15.30;99.90;;;;;;5038917;28;20408;-83
2022/05/29 06:44:48;;;;;;;9.02;3.05;;;15.30;99.90;;;;;;5056503;28;20390;-84
2022/05/29 06:47:15;;;;;;;8.63;3.53;;;15.10;99.90;;;;;;5039933;28;20411;-83
2022/05/29 06:49:41;;;;;;;7.85;3.90;;;15.10;99.90;;;;;;5054964;28;20483;-84
2022/05/29 06:52:08;;;;;;;9.68;4.15;;;15.30;99.90;;;;;;5054625;28;20912;-83
2022/05/29 06:54:34;;;;;;;8.90;4.80;;;15.60;99.90;;;;;;5053661;28;20931;-82
2022/05/29 06:57:00;;;;;;;8.52;3.90;;;16.00;99.90;;;;;;5037599;28;20398;-83
2022/05/29 06:59:25;;;;;;;7.83;3.00;;;16.30;99.90;;;;;;5055565;28;20475;-82
2022/05/29 07:07:22;;;;;;;7.68;3.15;;;16.00;99.90;;;;;;5055479;28;20411;-84
2022/05/29 07:09:47;;;;;;;8.88;2.90;;;16.00;99.90;;;;;;5038308;28;20376;-82
2022/05/29 07:12:19;;;;;;;8.27;3.33;;;16.00;99.90;;;;;;5055467;28;20376;-83
2022/05/29 07:14:55;;;;;;;8.85;3.65;;;16.20;99.90;;;;;;5055294;28;20455;-83
2022/05/29 07:17:22;;;;;;;9.13;3.33;;;16.30;99.90;;;;;;5035664;28;20818;-83
2022/05/29 07:19:48;;;;;;;7.45;3.65;;;16.40;99.90;;;;;;5036293;28;20475;-84
2022/05/29 07:22:14;;;;;;;7.00;3.10;;;16.30;99.90;;;;;;5035168;28;20503;-85
2022/05/29 07:24:40;;;;;;;8.03;2.93;;;16.30;99.90;;;;;;5055561;28;20379;-83
2022/05/29 07:27:07;;;;;;;7.85;3.13;;;16.20;99.90;;;;;;5052568;28;20385;-83
2022/05/29 07:29:33;;;;;;;6.43;3.25;;;15.90;99.90;;;;;;5052792;28;20379;-83
2022/05/29 07:32:01;;;;;;;7.15;3.05;;;15.60;99.90;;;;;;5055427;28;20376;-82
2022/05/29 07:34:27;;;;;;;8.05;3.05;;;15.40;99.90;;;;;;5035236;28;20404;-82
2022/05/29 07:37:00;;;;;;;6.20;2.73;;;15.30;99.90;;;;;;5039873;28;20826;-83
2022/05/29 07:39:27;;;;;;;7.85;3.50;;;15.40;99.90;;;;;;5073518;28;20386;-83
2022/05/29 07:44:37;;;;;;;8.10;3.08;;;15.50;99.90;;;;;;5052053;28;20972;-82
2022/05/29 07:47:03;;;;;;;5.63;2.67;;;15.70;99.90;;;;;;5052560;28;20407;-83
2022/05/29 07:49:29;;;;;;;6.68;3.00;;;16.00;99.90;;;;;;5035888;28;20442;-83
2022/05/29 07:51:55;;;;;;;8.00;3.37;;;16.20;99.90;;;;;;5050864;28;20869;-84
2022/05/29 07:54:22;;;;;;;10.00;3.28;;;16.40;99.90;;;;;;5054762;28;20431;-86
2022/05/29 07:56:47;;;;;;;7.43;3.30;;;16.30;99.90;;;;;;5071029;28;20856;-86
2022/05/29 07:59:16;;;;;;;9.90;3.37;;;16.40;99.90;;;;;;5051532;28;20383;-84
2022/05/29 08:01:41;;;;;;;7.63;3.50;;;16.30;99.90;;;;;;5053478;28;20442;-86
2022/05/29 08:04:07;;;;;;;8.97;3.70;;;16.10;99.90;;;;;;5034284;28;20430;-84
2022/05/29 08:06:32;;;;;;;8.80;3.47;;;15.60;99.90;;;;;;5034810;28;20479;-84
2022/05/29 08:08:58;;;;;;;9.50;3.60;;;15.30;99.90;;;;;;5034227;28;20452;-83
2022/05/29 08:11:24;;;;;;;8.55;3.28;;;15.50;99.90;;;;;;5039979;28;20400;-84
2022/05/29 08:13:49;;;;;;;8.33;3.70;;;15.60;99.90;;;;;;5060106;28;20374;-84
2022/05/29 08:16:16;;;;;;;7.82;3.40;;;16.00;99.90;;;;;;5059714;28;20415;-85
2022/05/29 08:18:41;;;;;;;10.57;3.65;;;16.20;99.90;;;;;;5044800;28;20414;-86
2022/05/29 08:21:07;;;;;;;7.43;3.33;;;16.30;99.90;;;;;;5044190;28;22621;-84
2022/05/29 08:23:37;;;;;;;7.78;3.13;;;16.30;99.90;;;;;;5065082;28;20443;-84
2022/05/29 08:31:31;;;;;;;8.35;3.83;;;15.50;99.90;;;;;;5057677;28;20953;-85
2022/05/29 08:33:57;;;;;;;11.32;3.85;;;15.00;99.90;;;;;;5056831;28;20456;-84
2022/05/29 08:36:25;;;;;;;9.93;4.00;;;14.60;99.90;;;;;;5037361;28;20395;-85
2022/05/29 08:38:56;;;;;;;8.70;3.85;;;14.60;99.90;;;;;;5054252;28;20395;-84
2022/05/29 08:41:40;;;;;;;10.70;3.33;;;14.70;99.90;;;;;;5040407;28;20498;-85
2022/05/29 08:44:11;;;;;;;6.47;2.80;;;14.90;99.90;;;;;;5039351;28;20411;-84
2022/05/29 08:46:40;;;;;;;5.40;2.50;;;15.20;99.90;;;;;;5057013;28;20407;-87
2022/05/29 08:49:09;;;;;;;5.95;2.40;;;15.50;99.90;;;;;;5057625;28;20470;-84
2022/05/29 08:52:12;;;;;;;5.55;2.10;;;16.00;99.90;;;;;;5040089;28;20384;-86
2022/05/29 08:55:01;;;;;;;5.63;2.50;;;16.40;99.90;;;;;;5027431;28;20384;-87
2022/05/29 08:57:33;;;;;;;6.97;2.60;;;16.70;99.90;;;;;;5039368;28;20384;-86
2022/05/29 09:00:23;;;;;;;5.70;2.28;;;16.50;99.90;;;;;;5038931;28;20395;-83
2022/05/29 09:03:11;;;;;;;4.85;2.35;;;16.70;99.90;;;;;;5037479;28;20773;-85
2022/05/29 09:06:05;;;;;;;5.78;2.30;;;17.00;99.90;;;;;;5038783;28;20402;-83
2022/05/29 09:08:37;;;;;;;5.07;2.22;;;17.30;99.90;;;;;;5037803;28;20507;-85
2022/05/29 09:11:10;;;;;;;5.07;2.20;;;17.70;99.90;;;;;;5037832;28;20396;-84
2022/05/29 09:13:43;;;;;;;5.00;2.15;;;18.00;99.90;;;;;;5038282;28;20390;-83
2022/05/29 09:16:18;;;;;;;5.82;2.10;;;18.10;99.90;;;;;;5037943;28;20406;-83
2022/05/29 09:18:55;;;;;;;4.53;2.00;;;18.20;99.90;;;;;;5037937;28;20950;-84
2022/05/29 09:21:26;;;;;;;4.35;2.17;;;18.40;99.90;;;;;;5038269;28;20443;-83
2022/05/29 09:24:33;;;;;;;7.68;2.60;;;18.60;99.90;;;;;;5057045;28;20877;-85
2022/05/29 09:26:58;;;;;;;4.18;2.17;;;19.00;99.90;;;;;;5036832;28;20394;-84
2022/05/29 09:29:24;;;;;;;5.20;2.17;;;18.60;99.90;;;;;;5038539;28;20466;-84
2022/05/29 09:31:50;;;;;;;5.85;1.80;;;18.30;99.90;;;;;;5037677;28;20376;-83
2022/05/29 09:34:15;;;;;;;5.33;2.10;;;18.00;99.90;;;;;;5037491;28;20407;-86
2022/05/29 09:37:00;;;;;;;4.10;1.90;;;17.50;99.90;;;;;;5056343;28;20463;-84
2022/05/29 09:39:27;;;;;;;5.50;1.90;;;16.70;99.90;;;;;;5038132;28;20412;-85
2022/05/29 09:42:03;;;;;;;6.60;2.13;;;16.60;99.90;;;;;;5056460;28;20463;-84
2022/05/29 09:44:29;;;;;;;3.37;1.50;;;16.40;99.90;;;;;;5057544;28;20420;-84
2022/05/29 09:49:40;;;;;;;4.00;1.80;;;16.40;99.90;;;;;;5042350;28;20398;-85
2022/05/29 09:49:49;;;;;;;4.18;1.95;;;16.20;99.90;;;;;;5065517;28;20394;-83
2022/05/29 09:52:23;;;;;;;5.85;2.17;;;16.20;99.90;;;;;;5045407;28;20449;-84
2022/05/29 09:55:21;;;;;;;3.50;1.80;;;16.40;99.90;;;;;;5048539;28;20459;-83
2022/05/29 09:57:55;;;;;;;3.72;1.70;;;16.50;99.90;;;;;;5046464;28;20455;-85
2022/05/29 10:00:32;;;;;;;4.90;1.80;;;16.50;99.90;;;;;;5058534;28;20757;-87
2022/05/29 10:02:59;;;;;;;5.63;2.67;;;16.50;99.90;;;;;;5040813;28;20411;-88
2022/05/29 10:05:35;;;;;;;6.78;2.45;;;16.50;99.90;;;;;;5039269;28;20406;-84
2022/05/29 10:08:39;;;;;;;4.10;2.20;;;16.60;99.90;;;;;;5050643;28;20390;-83
2022/05/29 10:11:15;;;;;;;6.30;2.55;;;16.60;99.90;;;;;;5040429;28;20764;-85
2022/05/29 10:13:42;;;;;;;6.63;2.42;;;16.70;99.90;;;;;;5050518;28;20768;-84
2022/05/29 10:16:08;;;;;;;4.22;2.00;;;17.00;99.90;;;;;;5035542;28;21288;-86
2022/05/29 10:18:36;;;;;;;6.18;2.47;;;17.20;99.90;;;;;;5043440;28;20859;-85
2022/05/29 10:21:10;;;;;;;6.13;2.40;;;17.40;99.90;;;;;;5047178;28;20985;-85
2022/05/29 10:24:21;;;;;;;5.30;2.78;;;17.50;99.90;;;;;;5063339;28;20893;-85
2022/05/29 10:26:55;;;;;;;3.92;2.20;;;17.50;99.90;;;;;;5035230;28;20470;-86
2022/05/29 10:29:30;;;;;;;4.33;2.00;;;17.60;99.90;;;;;;5041760;28;20465;-83
2022/05/29 10:31:58;;;;;;;5.32;1.98;;;17.90;99.90;;;;;;5041861;28;20406;-86
2022/05/29 10:34:29;;;;;;;4.43;1.80;;;18.10;99.90;;;;;;5055817;28;20387;-86
2022/05/29 10:36:56;;;;;;;3.78;1.70;;;18.40;99.90;;;;;;5039693;28;20384;-85
2022/05/29 10:39:25;;;;;;;4.20;1.90;;;18.50;99.90;;;;;;5055089;28;20527;-86
2022/05/29 10:42:09;;;;;;;4.28;1.73;;;18.80;99.90;;;;;;5109136;27;20709;-86
2022/05/29 10:44:44;;;;;;;5.23;1.90;;;19.10;99.90;;;;;;5108132;28;20474;-87
2022/05/29 10:47:28;;;;;;;2.90;1.55;;;18.70;99.90;;;;;;5109881;28;20440;-84
2022/05/29 10:50:27;;;;;;;4.32;1.48;;;18.20;99.90;;;;;;5106936;28;20791;-85
2022/05/29 10:53:17;;;;;;;3.88;1.90;;;18.00;99.90;;;;;;5107870;28;20387;-86
2022/05/29 10:56:08;;;;;;;4.43;2.30;;;17.80;99.90;;;;;;5108425;28;20405;-87
2022/05/29 10:58:42;;;;;;;3.83;1.98;;;17.50;99.90;;;;;;5105964;28;20382;-85
2022/05/29 11:04:35;;;;;;;3.85;1.58;;;17.40;99.90;;;;;;5109963;27;20792;-85
2022/05/29 11:07:13;;;;;;;5.07;1.98;;;17.40;99.90;;;;;;5109938;28;20372;-86
2022/05/29 11:09:47;;;;;;;5.53;1.88;;;17.60;99.90;;;;;;5103660;28;20448;-85
2022/05/29 11:12:15;;;;;;;3.87;1.70;;;17.90;99.90;;;;;;5102265;28;20459;-88
2022/05/29 11:15:36;;;;;;;3.53;1.73;;;18.20;99.90;;;;;;5092118;28;20709;-86
2022/05/29 11:18:38;;;;;;;3.33;1.30;;;18.60;99.90;;;;;;5086731;28;20372;-85
2022/05/29 11:21:19;;;;;;;3.28;1.30;;;;;;;;;;5108088;28;20411;-84
2022/05/29 11:24:12;;;;;;;3.15;1.40;;;18.40;99.90;;;;;;5108228;28;20508;-84
2022/05/29 11:27:03;;;;;;;2.63;1.33;;;18.10;99.90;;;;;;5105292;28;20399;-85
2022/05/29 11:30:00;;;;;;;3.00;1.30;;;17.90;99.90;;;;;;5098901;28;20391;-84
2022/05/29 11:32:31;;;;;;;3.72;1.48;;;17.80;99.90;;;;;;5107650;28;20372;-84
2022/05/29 11:35:10;;;;;;;3.40;1.60;;;;;;;;;;5107698;28;20442;-85
2022/05/29 11:37:39;;;;;;;4.03;1.87;;;;;;;;;;5106633;28;20368;-84
2022/05/29 11:40:05;;;;;;;5.63;1.93;;;;;;;;;;5105986;28;20545;-82
2022/05/29 11:42:49;;;;;;;4.72;1.80;;;;;;;;;;5106381;28;20474;-84
2022/05/29 11:51:06;;;;;;;3.72;1.80;;;;;;;;;;5106116;28;20372;-85
2022/05/29 11:51:18;;;;;;;3.20;1.83;;;;;;;;;;5093933;28;20467;-85
2022/05/29 11:54:03;;;;;;;2.38;1.50;;;;;;;;;;5092979;28;20372;-83
2022/05/29 11:56:30;;;;;;;2.95;1.30;;;;;;;;;;5091266;28;20373;-86
2022/05/29 11:59:13;;;;;;;3.00;1.27;;;;;;;;;;5093682;28;20431;-87
2022/05/29 12:01:42;;;;;;;2.92;1.50;;;;;;;;;;5089828;28;20411;-88
2022/05/29 12:04:18;;;;;;;2.33;1.40;;;;;;;;;;5092201;28;20453;-85
2022/05/29 12:06:54;;;;;;;2.05;1.15;;;;;;;;;;5090343;28;20401;-83
2022/05/29 12:09:33;;;;;;;2.75;1.13;;;18.10;99.90;;;;;;5081872;28;20387;-87
2022/05/29 12:12:16;;;;;;;2.67;1.20;;;18.10;99.90;;;;;;5091209;28;20427;-88
2022/05/29 12:14:47;;;;;;;1.60;1.08;;;18.40;99.90;;;;;;5076512;28;20753;-84
2022/05/29 12:17:21;;;;;;;2.60;1.25;;;18.60;99.90;;;;;;5094138;28;20411;-87
2022/05/29 12:19:59;;;;;;;1.48;1.10;;;18.60;99.90;;;;;;5089666;28;20428;-85
2022/05/29 12:22:27;;;;;;;1.80;0.93;;;;;;;;;;5090320;28;20394;-85
2022/05/29 12:24:56;;;;;;;1.70;0.90;;;18.80;99.90;;;;;;5090299;28;20399;-87
2022/05/29 12:27:24;;;;;;;1.25;0.80;;;;;;;;;;5089130;28;20888;-83
2022/05/29 12:29:54;;;;;;;1.90;1.00;;;19.00;99.60;;;;;;5092811;28;20426;-87
2022/05/29 12:32:24;;;;;;;1.98;0.90;;;19.20;99.00;;;;;;5089971;28;20414;-87
2022/05/29 12:35:13;;;;;;;2.20;1.20;;;19.10;99.70;;;;;;5091460;28;20368;-85
2022/05/29 12:38:07;;;;;;;2.33;1.27;;;19.00;99.90;;;;;;5088806;28;20388;-85
2022/05/29 12:41:07;;;;;;;2.47;1.30;;;19.30;99.60;;;;;;5089603;28;20404;-83
2022/05/29 12:43:36;;;;;;;2.72;1.15;;;19.40;99.90;;;;;;5046749;28;20388;-85
2022/05/29 12:46:24;;;;;;;2.58;1.48;;;19.50;99.90;;;;;;5090370;28;20388;-86
2022/05/29 12:49:39;;;;;;;3.47;1.70;;;19.50;98.60;;;;;;5091140;28;20384;-85
2022/05/29 12:52:18;;;;;;;4.13;1.70;;;19.40;99.90;;;;;;5047224;28;20404;-84
2022/05/29 12:55:14;;;;;;;4.40;1.77;;;19.10;99.90;;;;;;5091306;28;20521;-83
2022/05/29 12:58:19;;;;;;;4.60;1.83;;;18.50;99.90;;;;;;5089793;28;20384;-84
2022/05/29 13:01:06;;;;;;;3.47;2.10;;;18.10;99.90;;;;;;5090523;28;20416;-86
2022/05/29 13:03:59;;;;;;;3.67;1.90;;;17.60;99.90;;;;;;5085216;28;20368;-84
2022/05/29 13:06:40;;;;;;;9.80;6.18;;;17.10;99.90;;;;;;5092969;28;20473;-84
2022/05/29 13:09:27;;;;;;;4.45;2.17;;;16.70;99.90;;;;;;5093036;28;20384;-83
2022/05/29 13:12:00;;;;;;;3.40;2.03;;;16.70;99.90;;;;;;5084113;28;20860;-84
2022/05/29 13:14:27;;;;;;;3.10;1.60;;;16.70;99.90;;;;;;5091981;28;21155;-84
2022/05/29 13:17:03;;;;;;;2.07;1.10;;;16.80;99.90;;;;;;5093294;28;20410;-85
2022/05/29 13:19:54;;;;;;;3.15;1.42;;;16.80;99.90;;;;;;5091757;28;20419;-86
2022/05/29 13:22:20;;;;;;;2.03;1.00;;;16.90;99.90;;;;;;5088513;28;20408;-84
2022/05/29 13:24:59;;;;;;;3.22;1.30;;;17.00;99.90;;;;;;5089140;28;20482;-85
2022/05/29 13:27:26;;;;;;;1.77;1.20;;;17.10;99.90;;;;;;5088731;28;20487;-84
2022/05/29 13:29:55;;;;;;;2.20;1.60;;;17.20;99.90;;;;;;5090032;28;20481;-83
2022/05/29 13:32:30;;;;;;;3.58;1.88;;;17.10;99.90;;;;;;5088225;28;20403;-84
2022/05/29 13:35:04;;;;;;;3.80;1.75;;;16.80;99.90;;;;;;5088150;28;20483;-84
2022/05/29 13:37:44;;;;;;;3.30;2.10;;;16.70;99.90;;;;;;5090116;28;20438;-87
2022/05/29 13:40:29;;;;;;;5.22;2.10;;;16.70;99.90;;;;;;5090602;28;20855;-86
2022/05/29 13:43:15;;;;;;;4.00;2.10;;;16.60;99.90;;;;;;5087798;28;20894;-85
2022/05/29 13:45:56;;;;;;;3.72;2.15;;;16.70;99.90;;;;;;5088629;28;20373;-85
2022/05/29 13:48:24;;;;;;;2.83;1.90;;;16.90;99.90;;;;;;5088365;28;20380;-84
2022/05/29 13:50:57;;;;;;;4.53;1.77;;;17.10;99.90;;;;;;5087832;28;20376;-84
2022/05/29 13:54:06;;;;;;;4.05;2.00;;;17.40;99.90;;;;;;5089778;28;20375;-84